Time;durP1;ratioP1;P1;durP2;ratioP2;P2;SDS_P1;SDS_P2;PMS_P1;PMS_P2;Temp;Humidity;BMP_temperature;BMP_pressure;BME280_temperature;BME280_humidity;BME280_pressure;Samples;Min_cycle;Max_cycle;Signal;HPM_P1;HPM_P2
2020/12/07 00:03:14;;;;;;;21.33;10.05;;;6.00;87.50;;;;;;10033172;28;20057;-69
2020/12/07 00:08:04;;;;;;;17.60;7.57;;;6.00;87.50;;;;;;10033967;28;20720;-69
2020/12/07 00:12:55;;;;;;;18.05;9.43;;;6.10;87.50;;;;;;10030027;28;20034;-68
2020/12/07 00:17:46;;;;;;;19.27;9.13;;;6.10;87.30;;;;;;10030276;28;20064;-69
2020/12/07 00:22:36;;;;;;;17.27;8.40;;;6.10;87.30;;;;;;10033696;28;20037;-70
2020/12/07 00:27:29;;;;;;;18.15;8.95;;;6.10;87.30;;;;;;10028097;28;20048;-69
2020/12/07 00:32:20;;;;;;;19.75;8.45;;;6.00;87.50;;;;;;10029980;28;20410;-68
2020/12/07 00:37:12;;;;;;;17.60;8.20;;;5.90;87.90;;;;;;10029883;28;20032;-68
2020/12/07 00:42:03;;;;;;;25.35;10.90;;;6.00;87.80;;;;;;10032738;28;20036;-68
2020/12/07 00:46:53;;;;;;;22.83;11.10;;;6.00;87.60;;;;;;10028617;28;20099;-69
2020/12/07 00:51:44;;;;;;;15.60;8.00;;;6.00;87.60;;;;;;10024437;28;20474;-69
2020/12/07 00:56:35;;;;;;;17.02;8.13;;;6.00;87.60;;;;;;10029483;28;20399;-69
2020/12/07 01:01:25;;;;;;;18.85;8.73;;;6.00;87.80;;;;;;10028522;28;20109;-69
2020/12/07 01:06:16;;;;;;;20.48;9.10;;;6.00;87.70;;;;;;10023833;28;20503;-69
2020/12/07 01:11:06;;;;;;;21.00;8.70;;;6.00;87.80;;;;;;10032723;28;20492;-69
2020/12/07 01:15:57;;;;;;;16.58;9.10;;;6.00;87.50;;;;;;10026220;28;20022;-69
2020/12/07 01:20:47;;;;;;;19.05;9.07;;;5.90;87.60;;;;;;10034244;28;20570;-69
2020/12/07 01:25:38;;;;;;;14.90;8.50;;;5.90;87.80;;;;;;10027983;28;20036;-69
2020/12/07 01:30:29;;;;;;;15.13;7.75;;;5.90;87.90;;;;;;10033448;28;20087;-69
2020/12/07 01:35:19;;;;;;;19.40;8.30;;;6.00;87.90;;;;;;10027510;28;20029;-69
2020/12/07 01:40:10;;;;;;;15.68;7.05;;;6.00;87.70;;;;;;10029860;28;20053;-68
2020/12/07 01:45:01;;;;;;;14.00;7.72;;;6.00;87.90;;;;;;10026062;28;20034;-68
2020/12/07 01:49:51;;;;;;;14.75;7.47;;;6.00;87.80;;;;;;10031963;28;20540;-69
2020/12/07 01:54:43;;;;;;;17.70;8.45;;;6.00;87.70;;;;;;10023000;28;20036;-69
2020/12/07 01:59:33;;;;;;;14.05;7.22;;;5.90;87.90;;;;;;10024510;28;20848;-68
2020/12/07 02:04:24;;;;;;;14.93;8.07;;;5.90;88.30;;;;;;10029150;28;20069;-68
2020/12/07 02:09:15;;;;;;;15.15;7.32;;;5.90;88.20;;;;;;10026522;28;20408;-68
2020/12/07 02:14:05;;;;;;;16.38;7.07;;;5.80;88.40;;;;;;10035551;28;20030;-69
2020/12/07 02:18:59;;;;;;;15.88;7.75;;;5.80;88.50;;;;;;10030051;28;20026;-65
2020/12/07 02:23:49;;;;;;;18.38;7.97;;;5.80;88.30;;;;;;10033513;28;20040;-63
2020/12/07 02:28:40;;;;;;;15.18;8.15;;;5.80;88.30;;;;;;10036306;28;20036;-63
2020/12/07 02:33:31;;;;;;;16.13;8.02;;;5.80;88.30;;;;;;10029254;28;20053;-63
2020/12/07 02:38:21;;;;;;;14.02;7.15;;;5.80;88.30;;;;;;10038826;28;20083;-68
2020/12/07 02:43:12;;;;;;;11.57;6.85;;;5.80;88.30;;;;;;10034598;28;20034;-68
2020/12/07 02:48:02;;;;;;;14.65;8.60;;;5.80;88.60;;;;;;10037547;28;20393;-68
2020/12/07 02:52:53;;;;;;;16.67;8.02;;;5.80;88.40;;;;;;10032078;28;20034;-68
2020/12/07 02:57:43;;;;;;;16.00;8.77;;;5.90;88.20;;;;;;10034782;28;20404;-66
2020/12/07 03:02:35;;;;;;;16.65;7.93;;;5.80;88.40;;;;;;10031711;28;20499;-65
2020/12/07 03:07:26;;;;;;;14.10;7.38;;;5.80;88.40;;;;;;10034047;28;20192;-63
2020/12/07 03:12:16;;;;;;;15.50;7.80;;;5.90;88.30;;;;;;10028600;28;20554;-63
2020/12/07 03:17:07;;;;;;;19.30;8.38;;;5.80;88.40;;;;;;10032862;28;20049;-62
2020/12/07 03:21:58;;;;;;;16.75;7.47;;;5.80;88.50;;;;;;10035630;28;20610;-63
2020/12/07 03:26:48;;;;;;;15.13;8.45;;;5.80;88.70;;;;;;10029753;28;20025;-63
2020/12/07 03:31:40;;;;;;;15.48;7.35;;;5.80;88.80;;;;;;10033423;28;20457;-63
2020/12/07 03:36:31;;;;;;;14.20;8.48;;;5.80;89.00;;;;;;10026971;28;20124;-63
2020/12/07 03:41:21;;;;;;;17.92;8.38;;;5.80;89.40;;;;;;10029528;28;20036;-63
2020/12/07 03:46:12;;;;;;;17.08;7.47;;;5.70;89.00;;;;;;10029276;28;20709;-63
2020/12/07 03:51:04;;;;;;;15.27;8.27;;;5.60;89.30;;;;;;10031213;28;20379;-63
2020/12/07 03:55:54;;;;;;;18.45;7.78;;;5.70;89.20;;;;;;10031877;28;20060;-64
2020/12/07 04:00:45;;;;;;;14.43;8.13;;;5.70;89.10;;;;;;10029742;28;20064;-63
2020/12/07 04:05:40;;;;;;;12.90;5.93;;;5.70;89.10;;;;;;10028289;28;20535;-63
2020/12/07 04:10:30;;;;;;;20.30;9.18;;;5.60;89.20;;;;;;10033438;28;20475;-64
2020/12/07 04:15:21;;;;;;;15.55;8.60;;;5.70;89.30;;;;;;10023314;28;20022;-64
2020/12/07 04:20:11;;;;;;;17.60;7.90;;;5.70;89.10;;;;;;10027406;28;20029;-63
2020/12/07 04:25:03;;;;;;;22.73;10.35;;;5.70;89.10;;;;;;10029733;28;20049;-64
2020/12/07 04:29:53;;;;;;;18.02;9.02;;;5.60;89.30;;;;;;10030140;28;20029;-64
2020/12/07 04:34:44;;;;;;;18.13;8.82;;;5.60;89.10;;;;;;10025931;28;20033;-68
2020/12/07 04:39:34;;;;;;;19.88;8.48;;;5.60;89.40;;;;;;10030166;28;20040;-64
2020/12/07 04:44:25;;;;;;;17.30;8.68;;;5.60;89.30;;;;;;10031939;28;20379;-68
2020/12/07 04:49:16;;;;;;;16.25;9.00;;;5.70;89.00;;;;;;10029502;28;20133;-63
2020/12/07 04:54:08;;;;;;;18.48;8.20;;;5.70;89.00;;;;;;10029848;28;20523;-63
2020/12/07 04:58:58;;;;;;;17.70;8.23;;;5.60;89.30;;;;;;10025375;28;20040;-64
2020/12/07 05:03:49;;;;;;;16.45;8.52;;;5.60;89.40;;;;;;10032832;28;20029;-65
2020/12/07 05:08:40;;;;;;;16.67;9.00;;;5.70;89.30;;;;;;10027247;28;20025;-64
2020/12/07 05:13:42;;;;;;;18.65;8.68;;;5.70;89.50;;;;;;10028957;28;20535;-65
2020/12/07 05:18:34;;;;;;;13.95;6.95;;;5.70;89.40;;;;;;10026368;28;20082;-63
2020/12/07 05:23:24;;;;;;;15.85;7.78;;;5.70;89.40;;;;;;10032370;28;20143;-63
2020/12/07 05:28:25;;;;;;;17.13;7.40;;;5.70;89.40;;;;;;10026931;28;20036;-63
2020/12/07 05:33:17;;;;;;;13.57;6.88;;;5.70;89.40;;;;;;10023519;28;20684;-64
2020/12/07 05:38:08;;;;;;;16.55;8.50;;;5.70;89.40;;;;;;10026529;28;20116;-64
2020/12/07 05:42:59;;;;;;;13.05;6.97;;;5.70;89.40;;;;;;10029223;28;20037;-64
2020/12/07 05:47:53;;;;;;;15.07;6.35;;;5.70;89.60;;;;;;10027293;28;20042;-64
2020/12/07 05:52:46;;;;;;;16.20;8.40;;;5.80;89.40;;;;;;10036428;28;20395;-64
2020/12/07 05:57:52;;;;;;;13.10;6.60;;;5.70;89.20;;;;;;10038112;28;20105;-63
2020/12/07 06:02:43;;;;;;;17.53;7.50;;;5.80;89.40;;;;;;10035710;28;20514;-62
2020/12/07 06:07:36;;;;;;;13.13;6.45;;;5.70;88.90;;;;;;10038792;28;20033;-63
2020/12/07 06:12:34;;;;;;;14.00;8.32;;;5.70;89.20;;;;;;10038064;28;20033;-64
2020/12/07 06:17:29;;;;;;;20.42;8.38;;;5.70;89.00;;;;;;10031756;28;20022;-63
2020/12/07 06:22:21;;;;;;;16.30;7.13;;;5.70;89.00;;;;;;10030956;28;20037;-65
2020/12/07 06:27:14;;;;;;;17.65;7.30;;;5.60;89.10;;;;;;10035364;28;20396;-64
2020/12/07 06:32:05;;;;;;;19.15;8.05;;;5.60;89.20;;;;;;10030561;28;20037;-64
2020/12/07 06:36:57;;;;;;;13.85;6.93;;;5.60;88.80;;;;;;10036196;28;20131;-65
2020/12/07 06:41:47;;;;;;;14.80;7.00;;;5.60;88.60;;;;;;10033584;28;20482;-63
2020/12/07 06:46:59;;;;;;;16.23;6.90;;;5.60;88.90;;;;;;10033287;28;20373;-63
2020/12/07 06:51:59;;;;;;;12.23;7.75;;;5.60;88.70;;;;;;10029751;28;20492;-65
2020/12/07 06:56:50;;;;;;;12.82;7.40;;;5.70;88.70;;;;;;10032054;28;20030;-64
2020/12/07 07:01:50;;;;;;;14.52;6.78;;;5.70;88.70;;;;;;10035914;28;20036;-63
2020/12/07 07:06:40;;;;;;;12.85;7.10;;;5.80;88.60;;;;;;10032896;28;20032;-65
2020/12/07 07:11:31;;;;;;;13.63;7.03;;;5.70;88.60;;;;;;10032905;28;20025;-63
2020/12/07 07:16:21;;;;;;;13.85;7.10;;;5.70;88.40;;;;;;10034608;28;20029;-64
2020/12/07 07:21:12;;;;;;;14.45;7.47;;;5.70;88.40;;;;;;10031819;28;20104;-63
2020/12/07 07:26:24;;;;;;;12.20;5.60;;;5.70;88.30;;;;;;10026936;28;20044;-64
2020/12/07 07:31:15;;;;;;;11.43;5.07;;;5.60;88.20;;;;;;10028618;28;20026;-64
2020/12/07 07:36:05;;;;;;;11.48;5.28;;;5.60;88.30;;;;;;10040499;28;20400;-61
2020/12/07 07:40:56;;;;;;;10.73;5.55;;;5.70;88.20;;;;;;10027824;28;20033;-61
2020/12/07 07:45:53;;;;;;;12.88;5.85;;;5.70;88.60;;;;;;10032886;28;20042;-61
2020/12/07 08:12:45;;;;;;;15.18;5.43;;;5.80;88.10;;;;;;10030590;28;20099;-67
2020/12/07 08:16:42;;;;;;;13.10;6.38;;;5.90;88.40;;;;;;10021880;28;20041;-68
2020/12/07 08:21:32;;;;;;;12.63;6.75;;;5.90;87.80;;;;;;10028299;28;20496;-68
2020/12/07 08:26:24;;;;;;;11.32;6.10;;;5.90;87.80;;;;;;10036412;28;20033;-67
2020/12/07 08:31:18;;;;;;;9.50;5.90;;;6.10;87.30;;;;;;10028721;28;20083;-66
2020/12/07 08:36:09;;;;;;;12.75;7.40;;;6.10;87.10;;;;;;10031603;28;20107;-66
2020/12/07 08:41:10;;;;;;;16.10;7.00;;;6.10;87.10;;;;;;10031583;28;20074;-67
2020/12/07 08:46:01;;;;;;;13.63;5.95;;;5.90;87.10;;;;;;10030787;28;20129;-66
2020/12/07 08:50:57;;;;;;;14.50;5.28;;;5.80;87.30;;;;;;10030272;28;20044;-66
2020/12/07 08:55:49;;;;;;;14.73;5.53;;;5.70;88.00;;;;;;10033731;28;20052;-66
2020/12/07 09:00:39;;;;;;;13.30;6.75;;;5.80;87.20;;;;;;10032398;28;20436;-67
2020/12/07 09:05:30;;;;;;;18.40;6.70;;;5.70;86.90;;;;;;10031973;28;20039;-66
2020/12/07 09:10:20;;;;;;;11.75;5.57;;;5.70;86.90;;;;;;10029177;28;20029;-65
2020/12/07 09:15:11;;;;;;;11.50;5.40;;;5.70;87.00;;;;;;10037046;28;20057;-66
2020/12/07 09:20:02;;;;;;;14.23;5.97;;;5.80;86.70;;;;;;10022310;28;20034;-67
2020/12/07 09:24:53;;;;;;;13.73;6.03;;;5.80;86.40;;;;;;10026571;28;20045;-66
2020/12/07 09:29:44;;;;;;;7.85;5.40;;;5.90;86.50;;;;;;10032194;28;20104;-66
2020/12/07 09:34:34;;;;;;;14.02;7.22;;;6.10;86.20;;;;;;10055005;28;20862;-66
2020/12/07 09:39:25;;;;;;;11.77;5.32;;;6.20;86.30;;;;;;10025416;28;20032;-66
2020/12/07 09:44:15;;;;;;;10.30;5.82;;;6.20;86.00;;;;;;10030556;28;20044;-67
2020/12/07 09:49:06;;;;;;;9.57;5.03;;;6.20;86.20;;;;;;10025756;28;20080;-67
2020/12/07 09:53:57;;;;;;;10.18;5.47;;;6.40;85.80;;;;;;10025201;28;20088;-68
2020/12/07 09:58:47;;;;;;;10.60;5.20;;;6.40;85.60;;;;;;10025266;28;20026;-67
2020/12/07 10:03:38;;;;;;;11.27;5.30;;;6.40;85.50;;;;;;10031669;28;20128;-67
2020/12/07 10:08:29;;;;;;;10.75;5.28;;;6.50;85.40;;;;;;10028799;28;20067;-66
2020/12/07 10:13:19;;;;;;;10.45;5.50;;;6.50;85.20;;;;;;10037684;28;20053;-67
2020/12/07 10:18:10;;;;;;;12.18;5.38;;;6.70;85.40;;;;;;10030917;28;20022;-67
2020/12/07 10:23:00;;;;;;;10.63;5.03;;;6.60;84.50;;;;;;10024165;28;20056;-69
2020/12/07 10:27:51;;;;;;;11.13;5.25;;;6.70;84.70;;;;;;10032101;28;20120;-69
2020/12/07 10:32:41;;;;;;;7.10;4.13;;;6.70;84.20;;;;;;10032654;28;20037;-67
2020/12/07 10:37:32;;;;;;;9.50;4.95;;;6.70;83.90;;;;;;10034663;28;20030;-65
2020/12/07 10:42:23;;;;;;;10.82;5.53;;;6.70;84.00;;;;;;10033575;28;20111;-63
2020/12/07 10:47:13;;;;;;;7.28;4.45;;;6.70;84.10;;;;;;10033927;28;20050;-64
2020/12/07 10:52:04;;;;;;;9.95;5.68;;;6.80;84.70;;;;;;10035630;28;20033;-63
2020/12/07 10:56:55;;;;;;;7.18;4.03;;;6.70;83.70;;;;;;10034403;28;20019;-60
2020/12/07 11:01:45;;;;;;;8.27;3.90;;;6.80;83.50;;;;;;10031101;28;20029;-59
2020/12/07 11:06:41;;;;;;;7.18;3.45;;;6.90;82.80;;;;;;10035118;28;20098;-66
2020/12/07 11:11:31;;;;;;;8.38;4.18;;;7.10;82.90;;;;;;10038627;28;20650;-65
2020/12/07 11:16:24;;;;;;;6.53;3.67;;;7.10;82.60;;;;;;10031358;28;20081;-65
2020/12/07 11:21:15;;;;;;;6.35;3.22;;;7.00;82.60;;;;;;10032097;28;20044;-64
2020/12/07 11:26:06;;;;;;;6.30;3.08;;;7.00;82.20;;;;;;10032216;28;20083;-63
2020/12/07 11:30:56;;;;;;;7.28;4.47;;;6.90;82.30;;;;;;10032863;28;20103;-64
2020/12/07 11:35:47;;;;;;;7.30;3.97;;;7.10;82.10;;;;;;10040703;28;20068;-65
2020/12/07 11:45:37;;;;;;;7.28;3.95;;;7.10;81.00;;;;;;10027970;28;20032;-65
2020/12/07 11:50:28;;;;;;;6.75;2.85;;;7.20;81.40;;;;;;10029531;28;20034;-66
2020/12/07 11:55:18;;;;;;;13.95;7.43;;;7.30;80.60;;;;;;10031269;28;20025;-65
2020/12/07 12:00:09;;;;;;;8.73;3.33;;;7.50;80.90;;;;;;10031315;28;20037;-65
2020/12/07 12:05:00;;;;;;;4.68;2.88;;;7.60;80.10;;;;;;10034932;28;20029;-66
2020/12/07 12:09:51;;;;;;;4.97;2.95;;;7.50;79.90;;;;;;10033506;28;20400;-66
2020/12/07 12:14:42;;;;;;;3.22;2.22;;;7.30;80.30;;;;;;10028560;28;20024;-68
2020/12/07 12:19:32;;;;;;;3.72;2.10;;;7.20;80.40;;;;;;10033945;28;20514;-61
2020/12/07 12:24:23;;;;;;;5.90;3.50;;;7.30;79.70;;;;;;10031248;28;20025;-63
2020/12/07 12:29:14;;;;;;;5.22;2.72;;;7.40;79.70;;;;;;10034703;28;20018;-60
2020/12/07 12:34:04;;;;;;;3.67;2.33;;;7.40;79.50;;;;;;10029632;28;20698;-62
2020/12/07 12:38:56;;;;;;;2.85;2.15;;;7.40;79.10;;;;;;10030870;28;20036;-66
2020/12/07 12:43:47;;;;;;;4.57;2.33;;;7.40;79.30;;;;;;10031536;28;20490;-64
2020/12/07 12:48:38;;;;;;;5.43;3.03;;;7.70;79.10;;;;;;10030099;28;20422;-67
2020/12/07 12:53:29;;;;;;;7.68;2.45;;;7.70;78.50;;;;;;10032882;28;20021;-68
2020/12/07 12:58:20;;;;;;;3.75;2.33;;;7.80;78.20;;;;;;10031282;28;20038;-66
2020/12/07 13:03:10;;;;;;;5.30;3.05;;;7.80;77.40;;;;;;10033679;28;20043;-65
2020/12/07 13:08:01;;;;;;;6.07;2.97;;;7.80;78.50;;;;;;10030521;28;20029;-66
2020/12/07 13:12:51;;;;;;;6.68;3.47;;;7.60;77.50;;;;;;10030157;28;20025;-67
2020/12/07 13:17:44;;;;;;;5.63;3.08;;;7.60;77.70;;;;;;10025220;28;20579;-67
2020/12/07 13:22:43;;;;;;;5.63;2.83;;;7.80;77.00;;;;;;10027106;28;20030;-67
2020/12/07 13:32:57;;;;;;;3.88;2.22;;;7.90;76.80;;;;;;10055103;28;20049;-65
2020/12/07 13:37:48;;;;;;;5.32;2.35;;;7.80;77.00;;;;;;10058444;28;20033;-67
2020/12/07 13:42:39;;;;;;;4.32;2.40;;;7.70;77.00;;;;;;10057686;28;20396;-68
2020/12/07 13:47:29;;;;;;;3.33;1.83;;;7.80;76.40;;;;;;10051776;28;20080;-68
2020/12/07 13:52:20;;;;;;;4.93;2.88;;;7.80;76.00;;;;;;10055896;28;20029;-68
2020/12/07 13:57:10;;;;;;;4.75;2.80;;;7.90;75.90;;;;;;10063763;28;20091;-66
2020/12/07 14:02:01;;;;;;;3.45;2.05;;;8.00;76.10;;;;;;10058264;28;20072;-67
2020/12/07 14:06:52;;;;;;;3.22;2.05;;;7.90;75.40;;;;;;10051784;28;20060;-65
2020/12/07 14:11:46;;;;;;;4.32;2.67;;;7.80;75.80;;;;;;10030629;28;20030;-66
2020/12/07 14:16:37;;;;;;;5.35;2.70;;;7.80;75.60;;;;;;10032966;28;20040;-66
2020/12/07 14:26:53;;;;;;;4.38;2.47;;;8.10;74.50;;;;;;10036886;28;20099;-65
2020/12/07 14:35:08;;;;;;;4.07;2.50;;;8.20;74.30;;;;;;10036204;28;20064;-64
2020/12/07 14:42:24;;;;;;;4.57;2.70;;;7.80;74.40;;;;;;10001676;28;20065;-65
2020/12/07 14:47:18;;;;;;;4.88;3.35;;;7.70;74.60;;;;;;9998856;28;20440;-67
2020/12/07 14:52:11;;;;;;;4.78;2.60;;;7.60;74.50;;;;;;9994940;28;20049;-66
2020/12/07 15:07:03;;;;;;;5.30;3.17;;;7.40;74.50;;;;;;9997979;28;20558;-69
2020/12/07 15:12:02;;;;;;;3.80;2.67;;;7.30;74.70;;;;;;9996419;28;20573;-66
2020/12/07 15:16:54;;;;;;;5.43;2.38;;;7.30;74.90;;;;;;10032271;28;20487;-64
2020/12/07 15:21:46;;;;;;;6.07;2.72;;;7.20;75.50;;;;;;10033444;28;20572;-62
2020/12/07 15:26:37;;;;;;;4.80;2.40;;;7.20;74.70;;;;;;10032354;28;20033;-61
2020/12/07 15:31:28;;;;;;;4.07;2.45;;;7.20;74.70;;;;;;10033105;28;20045;-63
2020/12/07 15:36:18;;;;;;;4.90;2.47;;;7.20;74.60;;;;;;10036776;28;20072;-66
2020/12/07 15:41:11;;;;;;;4.22;3.17;;;7.20;74.50;;;;;;10030563;28;20106;-67
2020/12/07 15:46:02;;;;;;;5.43;3.08;;;7.20;74.60;;;;;;10034192;28;20045;-67
2020/12/07 15:50:52;;;;;;;6.78;2.90;;;7.20;74.50;;;;;;10036776;28;20033;-66
2020/12/07 15:55:44;;;;;;;6.03;2.63;;;7.20;74.40;;;;;;10035014;28;20037;-67
2020/12/07 16:00:35;;;;;;;6.63;3.38;;;7.30;74.40;;;;;;10029955;28;20029;-68
2020/12/07 16:05:25;;;;;;;6.95;3.10;;;7.30;74.40;;;;;;10027973;28;20709;-68
2020/12/07 16:10:16;;;;;;;6.70;3.53;;;7.30;74.50;;;;;;10037505;28;20053;-69
2020/12/07 16:15:06;;;;;;;8.00;3.30;;;7.30;74.30;;;;;;10036074;28;20033;-66
2020/12/07 16:19:57;;;;;;;7.22;3.45;;;7.20;74.50;;;;;;10031164;28;20034;-68
2020/12/07 16:24:49;;;;;;;7.85;3.70;;;7.20;74.80;;;;;;10032919;28;20441;-70
2020/12/07 16:29:39;;;;;;;5.35;3.28;;;7.30;74.70;;;;;;10036483;28;20026;-69
2020/12/07 16:34:31;;;;;;;5.90;3.90;;;7.20;74.40;;;;;;10034255;28;20037;-68
2020/12/07 16:39:22;;;;;;;8.13;4.28;;;7.20;74.80;;;;;;10033114;28;20028;-68
2020/12/07 16:44:12;;;;;;;7.60;3.78;;;7.30;74.70;;;;;;10034713;28;20044;-68
2020/12/07 16:49:03;;;;;;;6.07;3.08;;;7.30;74.70;;;;;;10031175;28;20172;-68
2020/12/07 16:53:53;;;;;;;7.57;3.65;;;7.30;74.50;;;;;;10029539;28;20029;-69
2020/12/07 16:58:44;;;;;;;6.68;3.63;;;7.20;74.70;;;;;;10033473;28;20026;-61
2020/12/07 17:03:35;;;;;;;4.28;3.22;;;7.30;74.70;;;;;;10032250;28;20041;-70
2020/12/07 17:08:25;;;;;;;9.45;5.20;;;7.20;75.10;;;;;;10033248;28;20048;-63
2020/12/07 17:13:17;;;;;;;7.78;3.47;;;7.20;75.00;;;;;;10030975;28;20389;-62
2020/12/07 17:18:07;;;;;;;6.63;3.67;;;7.20;75.20;;;;;;10027417;28;20037;-62
2020/12/07 17:22:58;;;;;;;6.57;3.85;;;7.20;75.20;;;;;;10031719;28;20104;-69
2020/12/07 17:27:48;;;;;;;7.30;4.32;;;7.20;75.50;;;;;;10034342;28;20037;-68
2020/12/07 17:32:39;;;;;;;6.80;4.53;;;7.20;75.60;;;;;;10031834;28;20107;-71
2020/12/07 17:37:30;;;;;;;7.18;3.72;;;7.20;75.40;;;;;;10030025;28;20029;-64
2020/12/07 17:42:21;;;;;;;6.72;3.83;;;7.20;75.50;;;;;;10034041;28;20034;-63
2020/12/07 17:47:12;;;;;;;6.63;3.58;;;7.00;75.80;;;;;;10037980;28;20129;-64
2020/12/07 17:52:02;;;;;;;6.03;3.95;;;7.00;75.90;;;;;;10035366;28;20029;-64
2020/12/07 17:56:53;;;;;;;7.82;4.47;;;7.00;75.90;;;;;;10039246;28;20033;-61
2020/12/07 18:01:43;;;;;;;8.13;4.82;;;6.90;76.30;;;;;;10028059;28;20068;-63
2020/12/07 18:06:34;;;;;;;6.40;4.75;;;6.90;76.40;;;;;;10037074;28;20448;-64
2020/12/07 18:11:29;;;;;;;8.50;5.43;;;6.90;76.50;;;;;;10040120;28;20167;-64
2020/12/07 18:16:20;;;;;;;11.35;5.28;;;6.80;76.50;;;;;;10034623;28;20037;-62
2020/12/07 18:21:11;;;;;;;13.75;6.53;;;6.80;76.60;;;;;;10032828;28;20053;-62
2020/12/07 18:26:01;;;;;;;12.02;6.57;;;6.80;76.80;;;;;;10038672;28;20036;-70
2020/12/07 18:30:52;;;;;;;11.65;5.65;;;6.80;76.90;;;;;;10034761;28;20061;-68
2020/12/07 18:35:43;;;;;;;11.98;5.00;;;6.70;77.00;;;;;;10035937;28;20503;-62
2020/12/07 18:40:33;;;;;;;10.45;5.35;;;6.70;77.00;;;;;;10033281;28;20044;-69
2020/12/07 18:45:26;;;;;;;10.20;4.88;;;6.60;77.20;;;;;;10037731;28;20060;-68
2020/12/07 18:50:16;;;;;;;9.63;5.57;;;6.60;77.50;;;;;;10038237;28;20051;-68
2020/12/07 18:55:09;;;;;;;12.93;6.30;;;6.50;77.60;;;;;;10032646;28;20030;-69
2020/12/07 19:00:00;;;;;;;13.05;7.43;;;6.50;78.60;;;;;;10037057;28;20034;-69
2020/12/07 19:04:50;;;;;;;16.05;7.10;;;6.50;78.10;;;;;;10035021;28;20060;-67
2020/12/07 19:09:41;;;;;;;14.80;6.88;;;6.50;78.20;;;;;;10034604;28;20072;-66
2020/12/07 19:14:32;;;;;;;10.57;5.43;;;6.50;78.40;;;;;;10034490;28;20026;-69
2020/12/07 19:19:23;;;;;;;9.90;5.40;;;6.50;78.60;;;;;;10031242;28;20029;-66
2020/12/07 19:24:13;;;;;;;11.15;5.35;;;6.50;78.60;;;;;;10035179;28;20033;-68
2020/12/07 19:29:04;;;;;;;10.68;5.72;;;6.50;78.80;;;;;;10035674;28;20485;-69
2020/12/07 19:33:54;;;;;;;12.10;6.25;;;6.60;78.80;;;;;;10059091;28;20030;-63
2020/12/07 19:38:45;;;;;;;8.85;5.47;;;6.50;78.90;;;;;;10032615;28;20034;-65
2020/12/07 19:43:36;;;;;;;12.55;6.13;;;6.60;79.00;;;;;;10035292;28;20507;-67
2020/12/07 19:48:26;;;;;;;14.38;7.28;;;6.50;79.30;;;;;;10030732;28;20080;-66
2020/12/07 19:53:17;;;;;;;11.80;7.10;;;6.50;79.70;;;;;;10033650;28;20036;-65
2020/12/07 19:58:08;;;;;;;12.77;6.43;;;6.40;79.70;;;;;;10032499;28;20033;-63
2020/12/07 20:02:59;;;;;;;14.27;6.03;;;6.40;79.90;;;;;;10033937;28;20511;-63
2020/12/07 20:07:49;;;;;;;9.93;5.78;;;6.40;79.90;;;;;;10030651;28;20478;-63
2020/12/07 20:12:40;;;;;;;14.20;6.20;;;6.30;79.90;;;;;;10031985;28;20036;-63
2020/12/07 20:17:31;;;;;;;9.80;5.57;;;6.30;80.20;;;;;;10035778;28;20476;-61
2020/12/07 20:22:22;;;;;;;10.77;5.80;;;6.30;80.20;;;;;;10033134;28;20052;-63
2020/12/07 20:27:13;;;;;;;11.38;5.15;;;6.20;80.20;;;;;;10033779;28;20035;-64
2020/12/07 20:32:03;;;;;;;8.20;4.40;;;6.20;80.20;;;;;;10031172;28;20717;-65
2020/12/07 20:36:54;;;;;;;13.45;5.45;;;6.20;80.40;;;;;;10034668;28;20033;-66
2020/12/07 20:41:45;;;;;;;9.63;4.72;;;6.20;80.40;;;;;;10027997;28;20610;-62
2020/12/07 20:46:36;;;;;;;9.85;4.97;;;6.10;80.30;;;;;;10028099;28;20049;-64
2020/12/07 20:51:27;;;;;;;10.10;4.72;;;6.10;80.40;;;;;;10028114;28;20042;-63
2020/12/07 20:56:17;;;;;;;9.50;5.53;;;6.00;80.60;;;;;;10030544;28;20049;-61
2020/12/07 21:01:15;;;;;;;9.30;5.38;;;5.90;80.70;;;;;;10029261;28;20993;-61
2020/12/07 21:06:06;;;;;;;7.53;4.30;;;5.70;80.60;;;;;;10030242;28;20047;-61
2020/12/07 21:10:57;;;;;;;9.02;4.68;;;5.60;80.80;;;;;;10031172;28;20065;-63
2020/12/07 21:15:47;;;;;;;8.02;4.65;;;5.60;80.60;;;;;;10029953;28;20072;-62
2020/12/07 21:20:38;;;;;;;6.97;3.95;;;5.60;80.60;;;;;;10029547;28;20441;-65
2020/12/07 21:25:29;;;;;;;6.78;4.03;;;5.50;80.70;;;;;;10027247;28;20029;-65
2020/12/07 21:30:20;;;;;;;9.63;4.07;;;5.40;80.80;;;;;;10032623;28;20400;-65
2020/12/07 21:35:11;;;;;;;6.65;4.13;;;5.40;80.80;;;;;;10028951;28;20087;-63
2020/12/07 21:40:04;;;;;;;5.38;4.00;;;5.30;80.80;;;;;;10033147;28;20040;-62
2020/12/07 21:44:55;;;;;;;6.00;3.70;;;5.30;80.90;;;;;;10026911;28;20100;-69
2020/12/07 21:49:45;;;;;;;11.40;6.43;;;5.20;80.80;;;;;;10029025;28;20193;-66
2020/12/07 21:54:36;;;;;;;7.18;3.75;;;5.20;80.90;;;;;;10035225;28;20395;-67
2020/12/07 21:59:26;;;;;;;4.35;3.17;;;5.20;81.00;;;;;;10030996;28;20286;-65
2020/12/07 22:04:19;;;;;;;6.53;3.70;;;5.10;80.80;;;;;;10029771;28;20046;-63
2020/12/07 22:09:10;;;;;;;6.28;3.60;;;5.10;81.10;;;;;;10029543;28;20554;-62
2020/12/07 22:14:01;;;;;;;6.35;3.58;;;5.00;80.90;;;;;;10032223;28;20056;-67
2020/12/07 22:18:51;;;;;;;6.28;3.17;;;5.00;80.80;;;;;;10026660;28;20022;-67
2020/12/07 22:23:42;;;;;;;5.45;3.10;;;5.00;80.90;;;;;;10029213;28;20443;-62
2020/12/07 22:28:33;;;;;;;5.95;3.97;;;5.00;80.80;;;;;;10027788;28;20520;-66
2020/12/07 22:33:23;;;;;;;4.50;2.97;;;4.90;80.90;;;;;;10036245;28;20037;-62
2020/12/07 22:38:14;;;;;;;6.50;3.60;;;4.90;81.00;;;;;;10033788;28;20710;-68
2020/12/07 22:43:05;;;;;;;7.40;3.72;;;4.90;80.90;;;;;;10031533;28;20111;-62
2020/12/07 22:47:56;;;;;;;8.15;3.97;;;4.80;81.00;;;;;;10021262;28;20081;-66
2020/12/07 22:52:46;;;;;;;6.32;3.88;;;4.90;81.10;;;;;;10033607;28;20057;-66
2020/12/07 22:57:37;;;;;;;7.57;3.92;;;4.80;81.00;;;;;;10030354;28;20509;-67
2020/12/07 23:02:28;;;;;;;6.30;3.45;;;4.80;81.00;;;;;;10036402;28;20041;-66
2020/12/07 23:07:18;;;;;;;9.13;3.88;;;4.70;81.00;;;;;;10034782;28;20037;-67
2020/12/07 23:12:09;;;;;;;5.65;3.50;;;4.70;81.00;;;;;;10032738;28;20030;-66
2020/12/07 23:16:59;;;;;;;6.72;3.92;;;4.70;81.00;;;;;;10033643;28;20383;-62
2020/12/07 23:21:50;;;;;;;9.98;3.75;;;4.70;81.10;;;;;;10032382;28;20037;-66
2020/12/07 23:26:41;;;;;;;6.55;3.63;;;4.60;81.00;;;;;;10036744;28;20068;-68
2020/12/07 23:31:33;;;;;;;8.57;4.43;;;4.60;81.00;;;;;;10038789;28;20026;-70
2020/12/07 23:36:24;;;;;;;5.68;3.30;;;4.60;81.10;;;;;;10036100;28;20061;-61
2020/12/07 23:41:18;;;;;;;6.05;3.58;;;4.60;81.30;;;;;;10032287;28;20049;-67
2020/12/07 23:46:09;;;;;;;6.30;4.05;;;4.50;81.40;;;;;;10029917;28;20045;-66
2020/12/07 23:50:59;;;;;;;7.35;4.03;;;4.40;81.40;;;;;;10029615;28;20044;-67
2020/12/07 23:55:50;;;;;;;5.50;3.25;;;4.50;81.70;;;;;;10031891;28;20037;-66
